createdAt,value
2019-06-20T00:01:59.822Z,7.43
2019-06-20T00:07:05.417Z,7.50
2019-06-20T00:12:11.046Z,8.33
2019-06-20T00:17:16.551Z,8.37
2019-06-20T00:22:21.980Z,7.77
2019-06-20T00:27:27.442Z,9.70
2019-06-20T00:32:33.009Z,6.30
2019-06-20T00:37:38.638Z,6.20
2019-06-20T00:42:44.102Z,7.40
2019-06-20T00:47:49.571Z,6.50
2019-06-20T00:52:55.177Z,6.80
2019-06-20T00:58:00.833Z,6.93
2019-06-20T01:03:06.298Z,5.63
2019-06-20T01:08:11.980Z,8.87
2019-06-20T01:13:32.493Z,5.40
2019-06-20T01:18:24.626Z,4.87
2019-06-20T01:23:30.107Z,4.63
2019-06-20T01:28:35.560Z,9.67
2019-06-20T01:33:41.189Z,6.50
2019-06-20T01:38:46.694Z,4.97
2019-06-20T01:43:52.242Z,3.77
2019-06-20T01:48:57.751Z,5.40
2019-06-20T01:54:03.447Z,4.60
2019-06-20T01:59:09.071Z,4.80
2019-06-20T02:04:14.662Z,3.37
2019-06-20T02:09:20.172Z,6.33
2019-06-20T02:14:25.607Z,6.57
2019-06-20T02:19:31.166Z,5.97
2019-06-20T02:24:36.603Z,2.87
2019-06-20T02:29:42.154Z,6.00
2019-06-20T02:34:47.795Z,3.80
2019-06-20T02:39:53.243Z,4.60
2019-06-20T02:44:58.693Z,5.40
2019-06-20T02:50:04.247Z,4.90
2019-06-20T02:55:09.886Z,4.83
2019-06-20T03:00:15.377Z,5.37
2019-06-20T03:05:20.861Z,5.60
2019-06-20T03:10:26.410Z,6.43
2019-06-20T03:15:31.881Z,5.90
2019-06-20T03:20:37.427Z,6.83
2019-06-20T03:25:42.935Z,5.73
2019-06-20T03:30:48.453Z,7.13
2019-06-20T03:35:53.980Z,5.80
2019-06-20T03:40:59.493Z,8.50
2019-06-20T03:46:04.974Z,7.83
2019-06-20T03:51:10.461Z,6.37
2019-06-20T03:56:17.585Z,9.23
2019-06-20T04:01:23.080Z,7.97
2019-06-20T04:06:28.540Z,11.23
2019-06-20T04:11:34.084Z,9.43
2019-06-20T04:16:39.588Z,8.33
2019-06-20T04:21:45.104Z,12.27
2019-06-20T04:26:50.653Z,9.40
2019-06-20T04:31:56.081Z,8.17
2019-06-20T04:37:01.552Z,8.83
2019-06-20T04:42:07.014Z,11.53
2019-06-20T04:47:13.188Z,9.83
2019-06-20T04:52:18.684Z,13.17
2019-06-20T04:57:24.130Z,13.57
2019-06-20T05:02:38.445Z,11.40
2019-06-20T05:07:44.014Z,13.33
2019-06-20T05:12:49.487Z,11.00
2019-06-20T05:17:54.985Z,12.97
2019-06-20T05:23:00.493Z,11.57
2019-06-20T05:28:05.939Z,14.00
2019-06-20T05:33:12.801Z,14.80
2019-06-20T05:38:18.295Z,11.90
2019-06-20T05:43:23.845Z,11.67
2019-06-20T05:48:29.291Z,10.87
2019-06-20T05:53:34.834Z,13.03
2019-06-20T05:58:40.438Z,9.80
2019-06-20T06:03:45.928Z,13.87
2019-06-20T06:08:51.933Z,7.30
2019-06-20T06:13:57.445Z,6.70
2019-06-20T06:19:03.159Z,5.63
2019-06-20T06:24:09.032Z,7.23
2019-06-20T06:29:16.433Z,6.70
2019-06-20T06:34:22.230Z,7.17
2019-06-20T06:39:27.975Z,5.13
2019-06-20T06:44:33.779Z,5.17
2019-06-20T06:49:39.796Z,4.37
2019-06-20T06:54:45.559Z,3.47
2019-06-20T06:59:51.339Z,4.83
2019-06-20T07:04:57.158Z,3.83
2019-06-20T07:10:03.063Z,4.80
2019-06-20T07:15:08.884Z,3.33
2019-06-20T07:20:15.464Z,3.80
2019-06-20T07:25:22.845Z,6.27
2019-06-20T07:30:28.659Z,5.77
2019-06-20T07:35:34.448Z,6.00
2019-06-20T07:40:40.295Z,5.77
2019-06-20T07:46:01.559Z,4.57
2019-06-20T07:50:53.616Z,5.67
2019-06-20T07:55:59.370Z,5.57
2019-06-20T08:01:05.145Z,5.23
2019-06-20T08:06:10.939Z,8.33
2019-06-20T08:11:16.772Z,4.27
2019-06-20T08:16:22.530Z,4.77
2019-06-20T08:21:28.571Z,4.03
2019-06-20T08:26:34.564Z,4.50
2019-06-20T08:31:40.322Z,5.67
2019-06-20T08:36:46.139Z,3.17
2019-06-20T08:41:51.925Z,4.83
2019-06-20T08:46:59.241Z,4.10
2019-06-20T08:52:05.594Z,4.60
2019-06-20T08:57:11.428Z,2.60
2019-06-20T09:02:17.193Z,3.63
2019-06-20T09:07:22.952Z,4.83
2019-06-20T09:12:28.804Z,4.10
2019-06-20T09:17:34.689Z,3.37
2019-06-20T09:22:40.531Z,6.40
2019-06-20T09:27:46.347Z,3.60
2019-06-20T09:32:52.819Z,4.90
2019-06-20T09:37:59.567Z,4.20
2019-06-20T09:43:05.631Z,2.70
2019-06-20T09:48:12.864Z,2.57
2019-06-20T09:53:18.689Z,4.13
2019-06-20T09:58:24.451Z,4.80
2019-06-20T10:03:30.219Z,2.37
2019-06-20T10:08:36.034Z,2.47
2019-06-20T10:13:41.792Z,2.20
2019-06-20T10:18:48.481Z,3.30
2019-06-20T10:23:54.254Z,3.30
2019-06-20T10:29:00.003Z,2.40
2019-06-20T10:34:05.921Z,4.27
2019-06-20T10:39:12.254Z,3.93
2019-06-20T10:44:17.998Z,3.07
2019-06-20T10:49:23.914Z,2.97
2019-06-20T10:54:29.762Z,2.83
2019-06-20T10:59:35.588Z,3.37
2019-06-20T11:04:42.404Z,2.40
2019-06-20T11:09:49.492Z,3.40
2019-06-20T11:14:55.290Z,2.60
2019-06-20T11:20:01.023Z,3.00
2019-06-20T11:25:07.358Z,5.50
2019-06-20T11:30:14.915Z,4.33
2019-06-20T11:35:20.820Z,3.77
2019-06-20T11:40:26.835Z,2.47
2019-06-20T11:45:32.531Z,2.47
2019-06-20T11:50:38.354Z,2.30
2019-06-20T11:55:44.425Z,4.27
2019-06-20T12:01:03.034Z,2.63
2019-06-20T12:05:57.762Z,2.30
2019-06-20T12:11:03.528Z,3.67
2019-06-20T12:16:09.289Z,3.33
2019-06-20T12:21:15.081Z,3.60
2019-06-20T12:26:20.941Z,2.90
2019-06-20T12:31:26.729Z,3.53
2019-06-20T12:36:32.481Z,2.83
2019-06-20T12:41:38.738Z,5.97
2019-06-20T12:46:46.974Z,4.80
2019-06-20T12:51:52.847Z,4.93
2019-06-20T12:56:58.571Z,4.07
2019-06-20T13:02:04.320Z,4.20
2019-06-20T13:07:10.175Z,5.97
2019-06-20T13:12:15.934Z,5.13
2019-06-20T13:17:21.401Z,6.33
2019-06-20T13:22:27.014Z,4.97
2019-06-20T13:27:32.522Z,7.03
2019-06-20T13:32:38.370Z,8.07
2019-06-20T13:37:45.645Z,9.17
2019-06-20T13:42:54.498Z,7.77
2019-06-20T13:47:58.927Z,8.50
2019-06-20T13:53:04.461Z,9.53
2019-06-20T13:58:10.190Z,9.73
2019-06-20T14:03:15.993Z,9.17
2019-06-20T14:08:21.486Z,10.38
2019-06-20T14:13:27.418Z,9.47
2019-06-20T14:18:33.242Z,9.30
2019-06-20T14:23:39.036Z,8.13
2019-06-20T14:28:46.013Z,9.53
2019-06-20T14:33:51.914Z,10.67
2019-06-20T14:38:57.649Z,9.57
2019-06-20T14:44:03.427Z,7.80
2019-06-20T14:49:08.979Z,8.45
2019-06-20T14:54:14.781Z,7.60
2019-06-20T14:59:20.251Z,8.47
2019-06-20T15:04:25.808Z,6.97
2019-06-20T15:09:31.400Z,6.33
2019-06-20T15:14:36.962Z,4.93
2019-06-20T15:19:42.425Z,6.37
2019-06-20T15:24:50.409Z,5.40
2019-06-20T15:29:56.302Z,4.20
2019-06-20T15:35:02.185Z,4.37
2019-06-20T15:40:07.860Z,4.73
2019-06-20T15:45:13.337Z,5.17
2019-06-20T15:50:18.896Z,4.13
2019-06-20T15:55:24.382Z,3.63
2019-06-20T16:00:29.913Z,2.53
2019-06-20T16:05:35.551Z,4.23
2019-06-20T16:10:41.367Z,2.57
2019-06-20T16:15:47.204Z,2.87
2019-06-20T16:20:52.935Z,3.33
2019-06-20T16:25:58.690Z,2.30
2019-06-20T16:31:10.149Z,2.37
2019-06-20T16:36:13.130Z,2.43
2019-06-20T16:41:19.130Z,2.30
2019-06-20T16:46:24.622Z,2.80
2019-06-20T16:51:30.107Z,4.33
2019-06-20T16:56:35.641Z,5.23
2019-06-20T17:01:41.109Z,3.63
2019-06-20T17:06:46.588Z,3.80
2019-06-20T17:11:52.180Z,3.00
2019-06-20T17:16:57.722Z,6.17
2019-06-20T17:22:03.291Z,2.97
2019-06-20T17:27:08.807Z,5.40
2019-06-20T17:32:14.300Z,3.37
2019-06-20T17:37:19.770Z,5.67
2019-06-20T17:42:25.217Z,4.83
2019-06-20T17:47:30.743Z,3.90
2019-06-20T17:52:36.304Z,2.73
2019-06-20T17:57:41.828Z,4.00
2019-06-20T18:02:47.390Z,4.87
2019-06-20T18:07:52.852Z,3.60
2019-06-20T18:12:58.532Z,3.20
2019-06-20T18:18:04.035Z,3.70
2019-06-20T18:23:09.496Z,3.43
2019-06-20T18:28:15.010Z,4.97
2019-06-20T18:33:20.454Z,6.47
2019-06-20T18:38:25.960Z,3.23
2019-06-20T18:43:31.467Z,3.80
2019-06-20T18:48:37.150Z,6.73
2019-06-20T18:53:42.731Z,6.20
2019-06-20T18:58:48.198Z,6.03
2019-06-20T19:03:53.767Z,4.00
2019-06-20T19:08:59.441Z,4.83
2019-06-20T19:14:05.029Z,5.90
2019-06-20T19:19:10.622Z,8.47
2019-06-20T19:24:16.227Z,6.87
2019-06-20T19:29:21.782Z,5.57
2019-06-20T19:34:27.325Z,5.03
2019-06-20T19:39:32.856Z,6.53
2019-06-20T19:44:38.352Z,5.23
2019-06-20T19:49:43.877Z,5.87
2019-06-20T19:54:49.363Z,6.13
2019-06-20T19:59:54.862Z,6.73
2019-06-20T20:05:00.412Z,7.33
2019-06-20T20:10:06.686Z,6.23
2019-06-20T20:15:12.304Z,5.77
2019-06-20T20:20:17.770Z,5.80
2019-06-20T20:25:23.410Z,5.73
2019-06-20T20:30:28.912Z,4.83
2019-06-20T20:35:35.843Z,5.80
2019-06-20T20:40:41.628Z,6.47
2019-06-20T20:45:47.142Z,8.37
2019-06-20T20:50:52.748Z,8.93
2019-06-20T20:55:58.272Z,6.83
2019-06-20T21:01:16.939Z,6.80
2019-06-20T21:06:22.411Z,7.40
2019-06-20T21:11:27.927Z,7.63
2019-06-20T21:16:33.578Z,8.57
2019-06-20T21:21:39.117Z,9.87
2019-06-20T21:26:49.634Z,12.27
2019-06-20T21:31:51.915Z,13.10
2019-06-20T21:36:57.447Z,9.97
2019-06-20T21:42:02.923Z,11.23
2019-06-20T21:47:08.409Z,10.97
2019-06-20T21:52:13.930Z,9.67
2019-06-20T21:57:19.476Z,11.93
2019-06-20T22:02:24.972Z,10.93
2019-06-20T22:07:30.613Z,11.50
2019-06-20T22:12:36.229Z,9.50
2019-06-20T22:17:41.724Z,11.73
2019-06-20T22:22:47.196Z,12.90
2019-06-20T22:27:52.656Z,12.37
2019-06-20T22:32:58.192Z,12.00
2019-06-20T22:38:03.755Z,10.53
2019-06-20T22:43:09.239Z,12.00
2019-06-20T22:48:14.821Z,12.13
2019-06-20T22:53:20.302Z,12.40
2019-06-20T22:58:25.905Z,13.47
2019-06-20T23:03:31.497Z,13.40
2019-06-20T23:08:36.930Z,12.10
2019-06-20T23:13:42.473Z,11.23
2019-06-20T23:18:48.021Z,11.97
2019-06-20T23:23:53.500Z,11.87
2019-06-20T23:29:16.432Z,12.50
2019-06-20T23:34:22.189Z,13.83
2019-06-20T23:39:28.493Z,10.33
2019-06-20T23:44:34.148Z,12.27
2019-06-20T23:49:39.756Z,12.80
2019-06-20T23:54:45.512Z,12.67
2019-06-20T23:59:50.966Z,10.33
